createdAt,value
2017-11-11T00:00:34.347Z,7.10
2017-11-11T00:03:08.383Z,7.00
2017-11-11T00:05:43.014Z,7.00
2017-11-11T00:08:17.938Z,7.10
2017-11-11T00:10:52.046Z,7.10
2017-11-11T00:13:26.051Z,7.10
2017-11-11T00:15:59.938Z,7.00
2017-11-11T00:18:33.739Z,7.00
2017-11-11T00:21:07.898Z,6.90
2017-11-11T00:23:41.539Z,6.90
2017-11-11T00:26:15.581Z,6.90
2017-11-11T00:28:49.524Z,6.90
2017-11-11T00:31:23.482Z,6.90
2017-11-11T00:33:57.368Z,6.80
2017-11-11T00:36:31.286Z,6.80
2017-11-11T00:39:05.393Z,6.80
2017-11-11T00:41:39.187Z,6.80
2017-11-11T00:44:13.435Z,6.80
2017-11-11T00:46:47.121Z,6.80
2017-11-11T00:49:21.962Z,6.80
2017-11-11T00:51:55.881Z,6.80
2017-11-11T00:54:29.770Z,6.70
2017-11-11T00:57:03.526Z,6.70
2017-11-11T00:59:37.426Z,6.70
2017-11-11T01:02:12.016Z,6.70
2017-11-11T01:04:46.052Z,6.70
2017-11-11T01:07:20.951Z,6.70
2017-11-11T01:09:55.491Z,6.70
2017-11-11T01:12:29.516Z,6.70
2017-11-11T01:15:03.693Z,6.70
2017-11-11T01:17:38.115Z,6.70
2017-11-11T01:20:12.061Z,6.70
2017-11-11T01:22:46.103Z,6.70
2017-11-11T01:25:19.634Z,6.70
2017-11-11T01:27:53.619Z,6.70
2017-11-11T01:30:27.254Z,6.60
2017-11-11T01:33:01.541Z,6.60
2017-11-11T01:35:36.098Z,6.60
2017-11-11T01:38:10.483Z,6.50
2017-11-11T01:40:44.866Z,6.50
2017-11-11T01:43:18.534Z,6.50
2017-11-11T01:45:53.257Z,6.50
2017-11-11T01:48:27.981Z,6.50
2017-11-11T01:51:01.857Z,6.50
2017-11-11T01:53:36.731Z,6.50
2017-11-11T01:56:10.748Z,6.50
2017-11-11T01:58:44.478Z,6.50
2017-11-11T02:01:18.210Z,6.60
2017-11-11T02:03:52.499Z,6.60
2017-11-11T02:06:27.189Z,6.70
2017-11-11T02:09:01.537Z,6.70
2017-11-11T02:11:35.570Z,6.80
2017-11-11T02:14:09.369Z,6.80
2017-11-11T02:16:43.500Z,6.80
2017-11-11T02:19:17.448Z,6.80
2017-11-11T02:21:51.778Z,6.80
2017-11-11T02:24:25.579Z,6.70
2017-11-11T02:26:59.647Z,6.60
2017-11-11T02:29:33.478Z,6.60
2017-11-11T02:32:07.384Z,6.50
2017-11-11T02:34:41.474Z,6.40
2017-11-11T02:37:16.066Z,6.50
2017-11-11T02:39:50.925Z,6.40
2017-11-11T02:42:25.300Z,6.40
2017-11-11T02:44:59.044Z,6.40
2017-11-11T02:47:34.194Z,6.40
2017-11-11T02:50:08.210Z,6.40
2017-11-11T02:52:43.095Z,6.40
2017-11-11T02:55:16.655Z,6.40
2017-11-11T02:57:51.467Z,6.50
2017-11-11T03:00:26.338Z,6.50
2017-11-11T03:03:02.153Z,6.50
2017-11-11T03:05:36.178Z,6.50
2017-11-11T03:08:10.937Z,6.50
2017-11-11T03:10:44.950Z,6.50
2017-11-11T03:13:19.784Z,6.50
2017-11-11T03:15:54.722Z,6.50
2017-11-11T03:18:28.943Z,6.50
2017-11-11T03:21:03.720Z,6.50
2017-11-11T03:23:38.195Z,6.50
2017-11-11T03:26:12.461Z,6.50
2017-11-11T03:28:46.701Z,6.30
2017-11-11T03:31:21.503Z,6.40
2017-11-11T03:33:55.994Z,6.50
2017-11-11T03:36:29.906Z,6.50
2017-11-11T03:39:04.939Z,6.50
2017-11-11T03:41:39.451Z,6.60
2017-11-11T03:44:13.162Z,6.60
2017-11-11T03:46:48.067Z,6.60
2017-11-11T03:49:21.973Z,6.20
2017-11-11T03:51:56.739Z,6.60
2017-11-11T03:54:31.084Z,6.60
2017-11-11T03:57:05.986Z,6.60
2017-11-11T03:59:40.539Z,6.60
2017-11-11T04:02:15.895Z,6.60
2017-11-11T04:04:51.096Z,6.60
2017-11-11T04:07:25.955Z,6.70
2017-11-11T04:09:59.651Z,6.70
2017-11-11T04:12:33.582Z,6.70
2017-11-11T04:15:08.599Z,6.70
2017-11-11T04:17:43.404Z,6.60
2017-11-11T04:20:17.435Z,6.60
2017-11-11T04:22:52.036Z,6.60
2017-11-11T04:25:27.074Z,6.50
2017-11-11T04:28:01.598Z,6.50
2017-11-11T04:30:36.637Z,6.40
2017-11-11T04:33:10.470Z,6.50
2017-11-11T04:38:21.744Z,6.50
2017-11-11T04:40:56.466Z,6.50
2017-11-11T04:43:31.894Z,6.50
2017-11-11T04:46:06.739Z,7.50
2017-11-11T04:48:42.065Z,6.60
2017-11-11T04:51:16.086Z,6.60
2017-11-11T04:53:49.981Z,6.60
2017-11-11T04:56:24.724Z,6.60
2017-11-11T04:58:59.071Z,6.60
2017-11-11T05:01:33.186Z,6.60
2017-11-11T05:04:08.181Z,6.60
2017-11-11T05:06:43.121Z,6.70
2017-11-11T05:09:17.126Z,6.70
2017-11-11T05:11:51.766Z,6.80
2017-11-11T05:14:25.802Z,6.80
2017-11-11T05:16:59.982Z,6.80
2017-11-11T05:19:34.483Z,6.80
2017-11-11T05:22:08.595Z,6.70
2017-11-11T05:24:42.701Z,6.70
2017-11-11T05:27:17.839Z,6.70
2017-11-11T05:29:53.525Z,6.70
2017-11-11T05:32:28.336Z,6.70
2017-11-11T05:35:02.355Z,6.60
2017-11-11T05:37:36.090Z,6.60
2017-11-11T05:40:09.770Z,6.60
2017-11-11T05:42:43.833Z,6.60
2017-11-11T05:45:19.315Z,6.60
2017-11-11T05:47:53.130Z,6.50
2017-11-11T05:50:26.999Z,6.50
2017-11-11T05:53:02.251Z,6.40
2017-11-11T05:55:36.809Z,6.40
2017-11-11T05:58:11.362Z,6.40
2017-11-11T06:00:45.943Z,6.50
2017-11-11T06:03:20.448Z,6.50
2017-11-11T06:05:55.102Z,6.60
2017-11-11T06:08:29.431Z,6.60
2017-11-11T06:11:05.043Z,6.60
2017-11-11T06:13:39.357Z,6.60
2017-11-11T06:16:13.946Z,6.60
2017-11-11T06:18:48.218Z,6.60
2017-11-11T06:21:22.557Z,6.60
2017-11-11T06:23:56.782Z,6.70
2017-11-11T06:26:30.540Z,6.70
2017-11-11T06:29:04.648Z,6.80
2017-11-11T06:31:38.299Z,6.90
2017-11-11T06:34:12.449Z,6.90
2017-11-11T06:36:46.673Z,7.00
2017-11-11T06:39:22.519Z,7.00
2017-11-11T06:41:56.771Z,7.00
2017-11-11T06:44:30.981Z,7.00
2017-11-11T06:47:06.011Z,7.10
2017-11-11T06:49:41.386Z,7.00
2017-11-11T06:52:16.173Z,7.10
2017-11-11T06:54:50.605Z,7.10
2017-11-11T06:57:25.054Z,7.10
2017-11-11T06:59:58.894Z,7.10
2017-11-11T07:02:34.415Z,7.00
2017-11-11T07:05:09.635Z,7.00
2017-11-11T07:07:44.477Z,7.10
2017-11-11T07:10:19.319Z,7.10
2017-11-11T07:12:53.194Z,7.20
2017-11-11T07:15:27.309Z,7.20
2017-11-11T07:18:01.375Z,7.20
2017-11-11T07:20:36.519Z,7.20
2017-11-11T07:23:11.925Z,7.10
2017-11-11T07:25:47.260Z,7.10
2017-11-11T07:28:22.251Z,7.10
2017-11-11T07:30:57.447Z,7.10
2017-11-11T07:33:32.284Z,7.20
2017-11-11T07:36:06.465Z,7.30
2017-11-11T07:38:40.603Z,7.40
2017-11-11T07:41:14.964Z,7.40
2017-11-11T07:43:49.425Z,7.50
2017-11-11T07:46:23.664Z,7.50
2017-11-11T07:48:57.630Z,7.50
2017-11-11T07:51:32.299Z,7.70
2017-11-11T07:54:07.027Z,8.00
2017-11-11T07:56:41.206Z,8.30
2017-11-11T07:59:16.004Z,8.90
2017-11-11T08:01:50.932Z,9.60
2017-11-11T08:04:25.592Z,10.10
2017-11-11T08:07:00.508Z,10.30
2017-11-11T08:09:35.121Z,10.40
2017-11-11T08:12:10.230Z,10.80
2017-11-11T08:14:44.362Z,10.80
2017-11-11T08:17:18.109Z,10.70
2017-11-11T08:19:52.282Z,10.60
2017-11-11T08:22:26.275Z,10.50
2017-11-11T08:25:29.141Z,13.10
2017-11-11T08:28:02.952Z,11.00
2017-11-11T08:30:36.998Z,11.20
2017-11-11T08:33:11.982Z,11.20
2017-11-11T08:35:46.474Z,11.10
2017-11-11T08:38:21.235Z,11.10
2017-11-11T08:40:55.492Z,10.90
2017-11-11T08:43:31.206Z,10.80
2017-11-11T08:46:06.271Z,10.70
2017-11-11T08:48:41.081Z,10.60
2017-11-11T08:51:15.134Z,10.60
2017-11-11T08:53:49.699Z,10.70
2017-11-11T08:56:23.721Z,10.60
2017-11-11T08:58:58.035Z,10.60
2017-11-11T09:01:32.896Z,10.60
2017-11-11T09:04:08.459Z,10.50
2017-11-11T09:09:18.204Z,10.20
2017-11-11T09:11:52.591Z,10.20
2017-11-11T09:14:27.119Z,10.30
2017-11-11T09:17:01.981Z,10.40
2017-11-11T09:19:36.026Z,10.60
2017-11-11T09:22:11.471Z,11.20
2017-11-11T09:24:46.551Z,11.30
2017-11-11T09:29:55.822Z,11.40
2017-11-11T09:32:31.238Z,11.40
2017-11-11T09:35:06.098Z,11.20
2017-11-11T09:37:40.965Z,10.90
2017-11-11T09:40:15.102Z,10.70
2017-11-11T09:42:49.745Z,10.50
2017-11-11T09:45:24.493Z,10.30
2017-11-11T09:47:59.721Z,10.10
2017-11-11T09:50:34.762Z,10.10
2017-11-11T09:53:09.695Z,10.10
2017-11-11T09:55:44.287Z,10.50
2017-11-11T09:58:18.166Z,10.60
2017-11-11T10:00:52.443Z,10.80
2017-11-11T10:03:26.733Z,10.60
2017-11-11T10:06:01.253Z,10.10
2017-11-11T10:08:36.605Z,9.80
2017-11-11T10:11:12.272Z,9.60
2017-11-11T10:13:46.942Z,9.50
2017-11-11T10:16:21.214Z,9.50
2017-11-11T10:18:55.738Z,9.70
2017-11-11T10:21:30.808Z,9.60
2017-11-11T10:24:04.729Z,9.70
2017-11-11T10:26:38.446Z,9.80
2017-11-11T10:32:31.564Z,10.40
2017-11-11T10:35:05.981Z,10.50
2017-11-11T10:37:40.027Z,10.50
2017-11-11T10:40:13.904Z,10.30
2017-11-11T10:42:47.932Z,10.10
2017-11-11T10:45:21.835Z,9.90
2017-11-11T10:47:56.430Z,9.60
2017-11-11T10:50:30.575Z,9.60
2017-11-11T10:53:05.263Z,9.30
2017-11-11T10:55:40.435Z,9.10
2017-11-11T10:58:14.702Z,8.90
2017-11-11T11:00:48.702Z,8.80
2017-11-11T11:08:34.606Z,8.60
2017-11-11T11:11:09.014Z,8.70
2017-11-11T11:13:43.125Z,8.90
2017-11-11T11:16:18.406Z,9.20
2017-11-11T11:18:54.297Z,9.40
2017-11-11T11:21:30.242Z,9.50
2017-11-11T11:24:05.498Z,9.50
2017-11-11T11:29:15.371Z,9.50
2017-11-11T11:31:50.371Z,9.50
2017-11-11T11:34:24.351Z,9.50
2017-11-11T11:36:59.130Z,9.70
2017-11-11T11:44:44.668Z,10.40
2017-11-11T11:47:18.326Z,10.50
2017-11-11T11:49:53.452Z,10.60
2017-11-11T11:52:29.056Z,10.50
2017-11-11T11:55:03.725Z,10.40
2017-11-11T11:57:37.796Z,10.20
2017-11-11T12:00:12.491Z,10.10
2017-11-11T12:02:46.727Z,10.10
2017-11-11T12:05:20.902Z,10.20
2017-11-11T12:07:54.963Z,10.30
2017-11-11T12:10:29.541Z,10.50
2017-11-11T12:13:04.507Z,10.70
2017-11-11T12:15:38.828Z,10.70
2017-11-11T12:18:14.386Z,10.50
2017-11-11T12:20:50.082Z,10.50
2017-11-11T12:23:25.172Z,10.50
2017-11-11T12:25:59.550Z,10.40
2017-11-11T12:28:33.734Z,10.40
2017-11-11T12:31:08.362Z,10.00
2017-11-11T12:33:44.172Z,9.50
2017-11-11T12:36:18.006Z,9.20
2017-11-11T12:38:53.075Z,8.90
2017-11-11T12:41:28.208Z,8.70
2017-11-11T12:44:02.567Z,8.50
2017-11-11T12:46:36.922Z,8.40
2017-11-11T12:49:12.229Z,8.30
2017-11-11T12:51:46.464Z,8.30
2017-11-11T12:54:21.463Z,8.20
2017-11-11T12:56:55.693Z,8.30
2017-11-11T12:59:31.110Z,8.20
2017-11-11T13:04:41.062Z,8.20
2017-11-11T13:12:28.122Z,8.00
2017-11-11T13:15:02.268Z,8.10
2017-11-11T13:17:37.389Z,8.10
2017-11-11T13:20:11.419Z,8.20
2017-11-11T13:22:46.368Z,8.20
2017-11-11T13:25:20.942Z,8.20
2017-11-11T13:27:55.919Z,8.20
2017-11-11T13:33:05.899Z,8.30
2017-11-11T13:35:40.814Z,8.30
2017-11-11T13:38:16.147Z,8.30
2017-11-11T13:40:51.414Z,8.30
2017-11-11T13:43:26.011Z,8.30
2017-11-11T13:46:00.053Z,8.30
2017-11-11T13:48:33.763Z,8.30
2017-11-11T13:51:08.730Z,8.30
2017-11-11T13:53:43.538Z,8.20
2017-11-11T13:58:53.315Z,8.10
2017-11-11T14:01:28.599Z,8.00
2017-11-11T14:04:03.934Z,8.00
2017-11-11T14:06:37.918Z,8.00
2017-11-11T14:09:12.693Z,7.90
2017-11-11T14:11:46.654Z,7.90
2017-11-11T14:14:20.595Z,7.90
2017-11-11T14:16:54.624Z,7.90
2017-11-11T14:19:28.576Z,8.00
2017-11-11T14:22:03.310Z,8.00
2017-11-11T14:24:37.836Z,8.00
2017-11-11T14:27:13.316Z,8.10
2017-11-11T14:29:47.448Z,8.10
2017-11-11T14:32:23.071Z,8.20
2017-11-11T14:34:58.046Z,8.30
2017-11-11T14:40:08.356Z,8.40
2017-11-11T14:42:43.075Z,8.30
2017-11-11T14:45:16.783Z,8.30
2017-11-11T14:47:51.611Z,8.20
2017-11-11T14:50:26.453Z,8.10
2017-11-11T14:53:00.978Z,8.10
2017-11-11T14:55:34.743Z,8.20
2017-11-11T14:58:08.379Z,8.10
2017-11-11T15:00:42.110Z,8.10
2017-11-11T15:03:16.862Z,8.00
2017-11-11T15:05:51.502Z,11.30
2017-11-11T15:08:25.847Z,7.90
2017-11-11T15:11:00.571Z,7.90
2017-11-11T15:13:34.822Z,8.00
2017-11-11T15:16:09.318Z,7.90
2017-11-11T15:18:43.400Z,7.90
2017-11-11T15:21:17.962Z,7.90
2017-11-11T15:23:52.250Z,7.90
2017-11-11T15:26:26.492Z,7.90
2017-11-11T15:29:00.178Z,7.90
2017-11-11T15:31:34.104Z,7.90
2017-11-11T15:34:07.937Z,7.90
2017-11-11T15:36:41.789Z,7.90
2017-11-11T15:39:15.647Z,8.00
2017-11-11T15:41:50.433Z,8.00
2017-11-11T15:44:24.547Z,8.00
2017-11-11T15:46:59.127Z,7.90
2017-11-11T15:49:33.488Z,7.90
2017-11-11T15:52:08.317Z,7.90
2017-11-11T15:54:43.012Z,7.80
2017-11-11T15:57:17.212Z,8.10
2017-11-11T15:59:51.340Z,7.70
2017-11-11T16:02:25.055Z,7.60
2017-11-11T16:04:59.831Z,7.60
2017-11-11T16:07:33.945Z,7.50
2017-11-11T16:10:08.405Z,7.40
2017-11-11T16:12:42.679Z,7.40
2017-11-11T16:15:17.133Z,7.30
2017-11-11T16:17:52.103Z,7.30
2017-11-11T16:20:26.529Z,7.30
2017-11-11T16:23:00.874Z,7.30
2017-11-11T16:25:36.195Z,7.40
2017-11-11T16:28:10.437Z,7.40
2017-11-11T16:30:44.332Z,7.40
2017-11-11T16:33:19.216Z,7.40
2017-11-11T16:35:53.568Z,7.30
2017-11-11T16:38:28.054Z,7.30
2017-11-11T16:41:01.868Z,7.30
2017-11-11T16:43:36.427Z,7.30
2017-11-11T16:46:10.997Z,7.20
2017-11-11T16:48:45.560Z,7.30
2017-11-11T16:51:19.931Z,7.20
2017-11-11T16:53:54.713Z,7.30
2017-11-11T16:56:29.807Z,7.20
2017-11-11T16:59:04.002Z,7.20
2017-11-11T17:01:38.265Z,7.30
2017-11-11T17:04:13.865Z,7.40
2017-11-11T17:06:47.756Z,7.40
2017-11-11T17:17:10.627Z,7.60
2017-11-11T17:19:45.634Z,7.50
2017-11-11T17:22:20.678Z,7.50
2017-11-11T17:24:54.867Z,6.40
2017-11-11T17:27:30.347Z,7.60
2017-11-11T17:30:04.656Z,7.60
2017-11-11T17:32:38.752Z,7.60
2017-11-11T17:35:12.945Z,7.60
2017-11-11T17:37:47.476Z,7.60
2017-11-11T17:40:22.102Z,7.60
2017-11-11T17:42:56.508Z,7.60
2017-11-11T17:45:31.044Z,7.50
2017-11-11T17:48:05.185Z,7.40
2017-11-11T17:50:38.988Z,7.40
2017-11-11T17:53:13.703Z,7.40
2017-11-11T17:55:48.607Z,7.30
2017-11-11T17:58:23.279Z,7.40
2017-11-11T18:00:57.785Z,7.40
2017-11-11T18:03:31.593Z,7.40
2017-11-11T18:08:42.994Z,7.40
2017-11-11T18:11:17.174Z,7.40
2017-11-11T18:13:51.745Z,7.50
2017-11-11T18:16:26.141Z,7.60
2017-11-11T18:19:00.575Z,7.70
2017-11-11T18:21:34.864Z,7.70
2017-11-11T18:24:09.560Z,7.80
2017-11-11T18:26:44.378Z,7.80
2017-11-11T18:29:18.465Z,7.80
2017-11-11T18:31:52.423Z,7.80
2017-11-11T18:34:27.252Z,7.70
2017-11-11T18:39:37.078Z,7.50
2017-11-11T18:42:10.929Z,7.50
2017-11-11T18:44:46.394Z,7.40
2017-11-11T18:49:57.093Z,7.30
2017-11-11T18:52:31.587Z,7.30
2017-11-11T18:55:06.616Z,7.20
2017-11-11T18:57:40.818Z,7.10
2017-11-11T19:00:14.672Z,7.10
2017-11-11T19:02:48.952Z,7.00
2017-11-11T19:05:23.859Z,7.00
2017-11-11T19:07:59.207Z,7.00
2017-11-11T19:10:33.819Z,7.00
2017-11-11T19:13:08.580Z,7.00
2017-11-11T19:15:43.998Z,7.00
2017-11-11T19:18:17.721Z,7.00
2017-11-11T19:20:52.014Z,7.00
2017-11-11T19:23:27.074Z,7.00
2017-11-11T19:26:02.594Z,6.90
2017-11-11T19:28:36.191Z,6.90
2017-11-11T19:31:10.258Z,6.90
2017-11-11T19:33:43.959Z,7.00
2017-11-11T19:36:18.847Z,6.90
2017-11-11T19:38:53.717Z,6.90
2017-11-11T19:41:27.421Z,6.90
2017-11-11T19:46:37.727Z,6.90
2017-11-11T19:49:12.866Z,6.90
2017-11-11T19:51:48.053Z,6.90
2017-11-11T19:54:23.496Z,6.90
2017-11-11T19:56:57.129Z,6.90
2017-11-11T19:59:31.266Z,6.90
2017-11-11T20:02:05.815Z,6.90
2017-11-11T20:04:40.973Z,6.80
2017-11-11T20:07:16.044Z,6.80
2017-11-11T20:09:50.188Z,6.80
2017-11-11T20:12:23.906Z,6.80
2017-11-11T20:14:57.897Z,6.80
2017-11-11T20:17:32.304Z,6.80
2017-11-11T20:20:07.087Z,6.90
2017-11-11T20:22:42.400Z,6.80
2017-11-11T20:25:16.539Z,6.80
2017-11-11T20:27:50.398Z,6.80
2017-11-11T20:30:24.463Z,6.80
2017-11-11T20:32:58.906Z,6.80
2017-11-11T20:35:33.799Z,6.80
2017-11-11T20:40:44.258Z,6.80
2017-11-11T20:43:18.789Z,6.80
2017-11-11T20:45:52.721Z,6.70
2017-11-11T20:48:26.638Z,6.70
2017-11-11T20:51:00.491Z,6.70
2017-11-11T20:53:34.701Z,6.70
2017-11-11T20:56:08.642Z,6.60
2017-11-11T20:58:42.349Z,6.70
2017-11-11T21:01:16.579Z,6.70
2017-11-11T21:03:52.026Z,6.60
2017-11-11T21:06:27.137Z,6.60
2017-11-11T21:09:01.487Z,6.60
2017-11-11T21:11:35.372Z,6.60
2017-11-11T21:14:09.775Z,6.50
2017-11-11T21:16:43.906Z,6.60
2017-11-11T21:19:18.382Z,6.60
2017-11-11T21:21:54.049Z,6.50
2017-11-11T21:24:29.554Z,6.50
2017-11-11T21:27:04.825Z,9.00
2017-11-11T21:29:38.885Z,6.50
2017-11-11T21:32:13.682Z,6.40
2017-11-11T21:34:47.415Z,6.40
2017-11-11T21:37:21.145Z,6.50
2017-11-11T21:39:55.568Z,6.50
2017-11-11T21:42:30.314Z,6.50
2017-11-11T21:45:05.699Z,6.40
2017-11-11T21:47:39.968Z,6.50
2017-11-11T21:50:15.118Z,6.50
2017-11-11T21:52:49.506Z,6.50
2017-11-11T21:55:24.183Z,6.50
2017-11-11T21:57:58.842Z,6.50
2017-11-11T22:00:32.797Z,6.50
2017-11-11T22:03:06.699Z,6.40
2017-11-11T22:05:40.538Z,6.40
2017-11-11T22:08:15.670Z,6.40
2017-11-11T22:10:51.122Z,6.40
2017-11-11T22:13:26.297Z,6.40
2017-11-11T22:16:01.235Z,6.40
2017-11-11T22:18:36.674Z,6.50
2017-11-11T22:21:11.041Z,6.50
2017-11-11T22:23:44.845Z,6.50
2017-11-11T22:26:19.277Z,6.40
2017-11-11T22:28:53.599Z,6.40
2017-11-11T22:31:27.475Z,6.40
2017-11-11T22:34:01.283Z,6.40
2017-11-11T22:36:35.743Z,6.50
2017-11-11T22:39:10.589Z,6.50
2017-11-11T22:41:44.698Z,6.50
2017-11-11T22:44:19.417Z,6.50
2017-11-11T22:46:53.570Z,6.40
2017-11-11T22:49:27.294Z,6.40
2017-11-11T22:52:01.241Z,6.50
2017-11-11T22:54:35.517Z,6.40
2017-11-11T22:57:10.355Z,6.40
2017-11-11T23:02:21.199Z,6.40
2017-11-11T23:04:55.209Z,6.40
2017-11-11T23:07:29.794Z,6.40
2017-11-11T23:10:04.926Z,6.40
2017-11-11T23:12:38.856Z,6.40
2017-11-11T23:15:12.690Z,6.40
2017-11-11T23:17:46.559Z,6.30
2017-11-11T23:20:20.340Z,6.30
2017-11-11T23:22:54.625Z,6.40
2017-11-11T23:25:29.337Z,6.40
2017-11-11T23:28:05.195Z,6.40
2017-11-11T23:30:39.897Z,6.30
2017-11-11T23:33:14.664Z,6.30
2017-11-11T23:35:49.188Z,6.30
2017-11-11T23:40:58.448Z,6.30
2017-11-11T23:43:32.987Z,6.30
2017-11-11T23:46:07.895Z,6.30
2017-11-11T23:48:41.903Z,6.30
2017-11-11T23:51:15.950Z,6.20
2017-11-11T23:53:50.518Z,6.20
2017-11-11T23:56:25.422Z,6.20
2017-11-11T23:58:59.694Z,6.20
